Time;durP1;ratioP1;P1;durP2;ratioP2;P2;SDS_P1;SDS_P2;PMS_P1;PMS_P2;Temp;Humidity;BMP_temperature;BMP_pressure;BME280_temperature;BME280_humidity;BME280_pressure;Samples;Min_cycle;Max_cycle;Signal;HPM_P1;HPM_P2
2022/10/17 00:04:42;;;;;;;2.75;1.58;;;15.00;99.80;;;;;;10395341;28;20056;-62
2022/10/17 00:09:43;;;;;;;2.92;1.60;;;15.00;99.80;;;;;;10395271;28;20017;-62
2022/10/17 00:14:44;;;;;;;3.55;1.67;;;15.00;99.80;;;;;;10393011;28;20045;-62
2022/10/17 00:19:44;;;;;;;2.47;1.60;;;15.00;99.80;;;;;;10396555;28;20031;-62
2022/10/17 00:24:45;;;;;;;3.05;1.88;;;15.00;99.80;;;;;;10390640;28;20032;-62
2022/10/17 00:29:50;;;;;;;2.80;1.90;;;15.00;99.80;;;;;;10393906;28;20099;-62
2022/10/17 00:34:51;;;;;;;3.22;1.63;;;15.00;99.80;;;;;;10394584;28;20036;-62
2022/10/17 00:39:53;;;;;;;2.47;1.75;;;15.00;99.80;;;;;;10386917;28;20041;-62
2022/10/17 00:45:04;;;;;;;3.13;1.40;;;15.00;99.80;;;;;;10390476;28;20482;-62
2022/10/17 00:50:06;;;;;;;3.08;1.50;;;15.00;99.80;;;;;;10385804;28;20422;-63
2022/10/17 00:55:18;;;;;;;2.67;1.80;;;15.00;99.80;;;;;;10394214;28;20063;-62
2022/10/17 01:00:20;;;;;;;3.45;1.60;;;15.00;99.80;;;;;;10387559;28;20026;-62
2022/10/17 01:05:21;;;;;;;2.03;1.52;;;15.00;99.80;;;;;;10391901;28;20497;-63
2022/10/17 01:10:26;;;;;;;2.50;1.50;;;15.00;99.80;;;;;;10393290;28;20037;-62
2022/10/17 01:15:32;;;;;;;2.63;1.60;;;15.00;99.80;;;;;;10386982;28;20132;-62
2022/10/17 01:21:06;;;;;;;1.63;1.45;;;15.00;99.90;;;;;;10394456;28;20094;-62
2022/10/17 01:26:25;;;;;;;3.45;1.90;;;15.00;99.90;;;;;;10400901;28;20030;-65
2022/10/17 01:31:31;;;;;;;;;;;15.00;99.90;;;;;;10402124;28;20034;-62
2022/10/17 01:36:44;;;;;;;3.33;1.90;;;14.90;99.90;;;;;;10399149;28;19909;-61
2022/10/17 01:42:12;;;;;;;3.67;2.17;;;14.90;99.90;;;;;;10397861;28;20230;-62
2022/10/17 01:47:17;;;;;;;3.70;1.92;;;14.90;99.90;;;;;;10392422;28;20030;-62
2022/10/17 01:52:37;;;;;;;1.73;1.52;;;14.90;99.90;;;;;;10396268;28;20486;-61
2022/10/17 01:57:42;;;;;;;2.30;1.58;;;14.90;99.90;;;;;;10395709;28;20021;-62
2022/10/17 02:02:45;;;;;;;4.20;1.85;;;14.90;99.90;;;;;;10399250;28;20045;-62
2022/10/17 02:07:46;;;;;;;2.97;1.75;;;14.90;99.90;;;;;;10396973;28;20111;-61
2022/10/17 02:13:10;;;;;;;1.77;1.40;;;14.90;99.90;;;;;;10390298;28;20141;-61
2022/10/17 02:18:29;;;;;;;2.67;1.80;;;14.90;99.90;;;;;;10395893;28;20024;-61
2022/10/17 02:23:55;;;;;;;1.95;1.58;;;14.90;99.90;;;;;;10399131;28;20033;-61
2022/10/17 02:29:05;;;;;;;3.58;1.60;;;14.90;99.90;;;;;;10389566;28;20167;-61
2022/10/17 02:34:13;;;;;;;2.42;1.90;;;14.90;99.90;;;;;;10394326;28;20329;-62
2022/10/17 02:39:15;;;;;;;2.63;1.88;;;14.90;99.90;;;;;;10397265;28;20484;-61
2022/10/17 02:44:16;;;;;;;3.08;2.00;;;14.90;99.90;;;;;;10394392;28;20037;-62
2022/10/17 02:49:22;;;;;;;7.55;2.13;;;14.90;99.90;;;;;;10395300;28;20621;-61
2022/10/17 02:54:42;;;;;;;4.70;1.80;;;14.90;99.90;;;;;;10392872;28;20120;-61
2022/10/17 02:59:44;;;;;;;2.35;1.77;;;14.90;99.90;;;;;;10397814;28;20022;-61
2022/10/17 03:04:46;;;;;;;2.50;1.88;;;14.90;99.90;;;;;;10398331;28;20395;-61
2022/10/17 03:09:47;;;;;;;3.13;2.20;;;14.90;99.90;;;;;;10394660;28;20029;-61
2022/10/17 03:14:47;;;;;;;2.53;2.05;;;14.80;99.90;;;;;;10397523;28;20033;-61
2022/10/17 03:19:48;;;;;;;2.88;2.10;;;14.80;99.90;;;;;;10394186;28;20031;-61
2022/10/17 03:24:49;;;;;;;3.60;2.10;;;14.80;99.90;;;;;;10396777;28;20036;-61
2022/10/17 03:29:49;;;;;;;2.50;2.10;;;14.80;99.90;;;;;;10398301;28;20025;-62
2022/10/17 03:34:50;;;;;;;3.80;2.35;;;14.80;99.90;;;;;;10396666;28;20509;-61
2022/10/17 03:39:51;;;;;;;5.05;2.60;;;14.80;99.90;;;;;;10394436;28;20417;-61
2022/10/17 03:44:52;;;;;;;3.50;2.08;;;14.80;99.90;;;;;;10393309;28;20040;-61
2022/10/17 03:49:52;;;;;;;4.07;2.72;;;14.80;99.90;;;;;;10393447;28;20036;-61
2022/10/17 03:54:53;;;;;;;3.63;2.58;;;14.80;99.90;;;;;;10396062;28;20482;-61
2022/10/17 03:59:54;;;;;;;6.22;2.78;;;14.80;99.90;;;;;;10395120;28;20026;-61
2022/10/17 04:04:54;;;;;;;3.53;2.90;;;14.80;99.90;;;;;;10394570;28;20099;-61
2022/10/17 04:09:55;;;;;;;4.00;2.97;;;14.80;99.90;;;;;;10394258;28;20021;-61
2022/10/17 04:14:56;;;;;;;4.20;2.90;;;14.80;99.90;;;;;;10392455;28;20116;-61
2022/10/17 04:19:56;;;;;;;4.95;2.60;;;14.80;99.90;;;;;;10394702;28;20029;-61
2022/10/17 04:24:57;;;;;;;3.85;3.20;;;14.80;99.90;;;;;;10395564;28;20095;-61
2022/10/17 04:29:58;;;;;;;5.10;2.80;;;14.80;99.90;;;;;;10394267;28;20026;-61
2022/10/17 04:34:58;;;;;;;4.43;2.95;;;14.80;99.90;;;;;;10394034;28;20481;-61
2022/10/17 04:39:59;;;;;;;7.20;3.67;;;14.80;99.90;;;;;;10393562;28;20410;-61
2022/10/17 04:45:00;;;;;;;4.22;3.25;;;14.80;99.90;;;;;;10393066;28;20021;-62
2022/10/17 04:50:01;;;;;;;6.18;3.75;;;14.80;99.90;;;;;;10390578;28;20048;-61
2022/10/17 04:55:03;;;;;;;4.60;3.50;;;14.80;99.90;;;;;;10397718;28;20494;-61
2022/10/17 05:00:04;;;;;;;6.45;3.25;;;14.80;99.90;;;;;;10403445;28;20064;-61
2022/10/17 05:05:05;;;;;;;4.18;3.38;;;14.80;99.90;;;;;;10401529;28;20052;-61
2022/10/17 05:10:06;;;;;;;5.57;3.47;;;14.80;99.90;;;;;;10403014;28;20029;-61
2022/10/17 05:15:08;;;;;;;5.05;3.50;;;14.80;99.90;;;;;;10400762;28;20537;-62
2022/10/17 05:20:09;;;;;;;5.53;3.38;;;14.80;99.90;;;;;;10400624;28;20021;-63
2022/10/17 05:25:10;;;;;;;4.63;3.80;;;14.90;99.90;;;;;;10398178;28;20075;-61
2022/10/17 05:30:11;;;;;;;5.57;3.58;;;14.80;99.90;;;;;;10401438;28;20502;-61
2022/10/17 05:35:12;;;;;;;5.47;3.65;;;14.90;99.90;;;;;;10390744;28;20486;-62
2022/10/17 05:40:13;;;;;;;5.43;3.78;;;14.90;99.90;;;;;;10397183;28;20029;-61
2022/10/17 05:45:14;;;;;;;4.68;3.55;;;14.90;99.90;;;;;;10395714;28;20252;-61
2022/10/17 05:50:15;;;;;;;6.32;4.03;;;14.90;99.90;;;;;;10391100;28;20036;-61
2022/10/17 05:55:16;;;;;;;6.90;4.40;;;14.90;99.90;;;;;;10395764;28;20065;-63
2022/10/17 06:00:17;;;;;;;7.00;4.95;;;14.90;99.90;;;;;;10391237;28;20021;-61
2022/10/17 06:05:18;;;;;;;7.68;4.32;;;14.90;99.90;;;;;;10363072;28;20387;-62
2022/10/17 06:10:19;;;;;;;7.82;4.50;;;14.90;99.90;;;;;;10382471;28;20030;-61
2022/10/17 06:15:19;;;;;;;6.60;4.40;;;15.00;99.90;;;;;;10385931;28;20566;-61
2022/10/17 06:20:20;;;;;;;8.43;4.63;;;15.00;99.90;;;;;;10392861;28;20498;-63
2022/10/17 06:25:21;;;;;;;7.40;4.45;;;15.00;99.90;;;;;;10393550;28;20033;-61
2022/10/17 06:30:22;;;;;;;7.93;4.32;;;15.00;99.90;;;;;;10375995;28;20030;-63
2022/10/17 06:35:22;;;;;;;8.18;4.38;;;15.00;99.90;;;;;;10389966;28;20052;-62
2022/10/17 06:40:23;;;;;;;8.52;4.40;;;15.10;99.90;;;;;;10379920;28;20395;-62
2022/10/17 06:45:24;;;;;;;6.65;4.40;;;15.10;99.90;;;;;;10375381;28;20042;-62
2022/10/17 06:50:25;;;;;;;6.95;4.70;;;15.10;99.90;;;;;;10308080;28;20251;-60
2022/10/17 06:55:25;;;;;;;7.03;4.05;;;15.20;99.90;;;;;;10294525;28;20072;-62
2022/10/17 07:00:27;;;;;;;6.78;4.68;;;15.20;99.90;;;;;;10289668;28;20154;-62
2022/10/17 07:05:27;;;;;;;6.53;4.28;;;15.30;99.90;;;;;;10287178;28;20069;-61
2022/10/17 07:10:28;;;;;;;7.32;4.60;;;15.30;99.90;;;;;;10300559;28;20237;-61
2022/10/17 07:15:31;;;;;;;7.93;4.35;;;15.30;99.90;;;;;;10290146;28;20133;-62
2022/10/17 07:20:32;;;;;;;5.82;3.92;;;15.30;99.90;;;;;;10281080;28;20035;-61
2022/10/17 07:25:33;;;;;;;6.75;3.50;;;15.40;99.90;;;;;;10287408;28;20025;-65
2022/10/17 07:30:36;;;;;;;7.93;4.28;;;15.40;99.90;;;;;;10300522;28;20057;-61
2022/10/17 07:35:41;;;;;;;6.65;4.20;;;15.40;99.90;;;;;;10304777;28;20052;-61
2022/10/17 07:40:41;;;;;;;7.88;4.30;;;15.50;99.90;;;;;;10300155;28;20513;-60
2022/10/17 07:45:42;;;;;;;6.20;4.10;;;15.50;99.90;;;;;;10298121;28;20103;-67
2022/10/17 07:50:43;;;;;;;9.80;4.85;;;15.40;99.90;;;;;;10290991;28;20046;-59
2022/10/17 07:55:45;;;;;;;7.32;4.60;;;15.50;99.90;;;;;;10292852;28;20292;-62
2022/10/17 08:00:49;;;;;;;7.53;4.07;;;15.60;99.90;;;;;;10293819;28;20056;-65
2022/10/17 08:05:50;;;;;;;5.90;3.92;;;15.60;99.90;;;;;;10283777;28;20251;-59
2022/10/17 08:10:51;;;;;;;6.78;4.60;;;15.60;99.90;;;;;;10283661;28;20033;-59
2022/10/17 08:15:52;;;;;;;13.95;4.72;;;15.60;99.90;;;;;;10289756;28;20477;-59
2022/10/17 08:20:53;;;;;;;6.30;4.25;;;15.60;99.90;;;;;;10305159;28;20256;-61
2022/10/17 08:25:54;;;;;;;6.43;4.40;;;15.60;99.90;;;;;;10296175;28;20026;-60
2022/10/17 08:31:05;;;;;;;7.82;4.57;;;15.50;99.90;;;;;;10301746;28;20130;-60
2022/10/17 08:36:07;;;;;;;5.55;4.28;;;15.50;99.90;;;;;;10323518;23;21293;-60
2022/10/17 08:41:24;;;;;;;5.47;3.97;;;15.60;99.90;;;;;;10363099;28;20473;-60
2022/10/17 08:46:33;;;;;;;7.53;4.07;;;15.60;99.90;;;;;;10361016;28;20029;-68
2022/10/17 08:51:38;;;;;;;6.53;3.97;;;15.60;99.90;;;;;;10360074;28;20160;-60
2022/10/17 08:56:43;;;;;;;7.22;4.30;;;15.60;99.90;;;;;;10365016;28;20661;-61
2022/10/17 09:02:22;;;;;;;5.03;3.85;;;15.60;99.90;;;;;;10354136;28;20285;-60
2022/10/17 09:08:06;;;;;;;8.82;4.20;;;15.70;99.90;;;;;;10354385;28;20382;-60
2022/10/17 09:13:18;;;;;;;6.88;3.90;;;15.60;99.90;;;;;;10265979;28;20049;-60
2022/10/17 09:18:37;;;;;;;6.65;4.38;;;15.70;99.90;;;;;;10356264;28;20025;-60
2022/10/17 09:23:50;;;;;;;6.40;4.30;;;15.70;99.90;;;;;;10352567;28;20493;-61
2022/10/17 09:28:59;;;;;;;5.68;4.00;;;15.80;99.90;;;;;;10347549;28;20915;-61
2022/10/17 09:34:02;;;;;;;5.30;3.85;;;15.70;99.90;;;;;;10356073;28;20415;-61
2022/10/17 09:39:10;;;;;;;10.38;3.85;;;15.70;99.90;;;;;;10352801;28;20190;-60
2022/10/17 09:44:15;;;;;;;7.53;4.35;;;15.70;99.90;;;;;;10349426;28;20071;-62
2022/10/17 09:49:27;;;;;;;9.15;4.38;;;15.70;99.90;;;;;;10350128;28;20652;-66
2022/10/17 09:54:38;;;;;;;7.20;4.15;;;15.70;99.90;;;;;;10354581;28;20231;-60
2022/10/17 10:00:06;;;;;;;6.65;4.13;;;15.70;99.90;;;;;;10355493;28;20021;-60
2022/10/17 10:05:18;;;;;;;6.03;3.93;;;15.70;99.90;;;;;;10357260;28;20415;-60
2022/10/17 10:10:26;;;;;;;10.20;4.63;;;15.70;99.90;;;;;;10357414;28;20851;-60
2022/10/17 10:15:36;;;;;;;7.32;4.22;;;15.70;99.90;;;;;;10363715;28;20704;-60
2022/10/17 10:20:37;;;;;;;6.63;4.22;;;15.70;99.90;;;;;;10364524;28;20029;-62
2022/10/17 10:25:47;;;;;;;9.63;4.43;;;15.70;99.90;;;;;;10363550;28;20520;-61
2022/10/17 10:30:51;;;;;;;7.38;4.22;;;15.70;99.90;;;;;;10363974;28;20378;-61
2022/10/17 10:36:00;;;;;;;5.38;3.58;;;15.80;99.90;;;;;;10365836;28;20060;-61
2022/10/17 10:41:08;;;;;;;6.70;3.85;;;15.70;99.90;;;;;;10348249;28;20045;-61
2022/10/17 10:46:22;;;;;;;9.47;4.17;;;15.80;99.90;;;;;;10357726;28;20866;-61
2022/10/17 10:51:40;;;;;;;7.60;4.03;;;15.90;99.90;;;;;;10361505;28;20623;-61
2022/10/17 10:56:45;;;;;;;10.20;4.32;;;15.80;99.90;;;;;;10362912;28;20063;-61
2022/10/17 11:01:55;;;;;;;7.97;4.40;;;15.80;99.90;;;;;;10362468;28;20021;-61
2022/10/17 11:07:33;;;;;;;7.28;4.28;;;15.80;99.90;;;;;;10364673;28;20347;-62
2022/10/17 11:12:37;;;;;;;;;;;15.80;99.90;;;;;;10364684;28;20041;-61
2022/10/17 11:17:55;;;;;;;9.32;4.05;;;15.80;99.90;;;;;;10372840;28;20000;-61
2022/10/17 11:23:37;;;;;;;8.07;4.30;;;15.80;99.90;;;;;;10361370;28;20473;-62
2022/10/17 11:28:38;;;;;;;6.93;4.30;;;15.80;99.90;;;;;;10354245;28;20032;-64
2022/10/17 11:33:59;;;;;;;8.50;4.43;;;15.90;99.90;;;;;;10364039;28;20083;-62
2022/10/17 11:39:16;;;;;;;7.18;4.00;;;15.90;99.90;;;;;;10360940;28;20060;-62
2022/10/17 11:44:38;;;;;;;13.18;4.78;;;16.00;99.90;;;;;;10360726;28;20771;-61
2022/10/17 11:49:49;;;;;;;11.60;5.35;;;16.00;99.90;;;;;;10359103;28;20331;-61
2022/10/17 11:55:04;;;;;;;6.05;3.88;;;16.00;99.90;;;;;;10355887;28;20068;-62
2022/10/17 12:00:25;;;;;;;7.93;4.07;;;16.10;99.90;;;;;;10361387;28;20423;-60
2022/10/17 12:05:41;;;;;;;8.10;4.78;;;16.10;99.90;;;;;;10363573;28;20037;-60
2022/10/17 12:10:59;;;;;;;10.32;4.68;;;16.10;99.90;;;;;;10358792;28;20033;-60
2022/10/17 12:16:18;;;;;;;9.43;4.70;;;16.10;99.90;;;;;;10358438;28;20040;-60
2022/10/17 12:21:19;;;;;;;12.23;4.35;;;16.30;99.90;;;;;;10360098;28;20515;-60
2022/10/17 12:26:28;;;;;;;8.35;4.88;;;16.20;99.90;;;;;;10353890;28;20041;-60
2022/10/17 12:31:29;;;;;;;11.85;4.72;;;16.20;99.90;;;;;;10353610;28;20037;-59
2022/10/17 12:36:29;;;;;;;8.25;4.68;;;16.20;99.90;;;;;;10352842;28;20372;-59
2022/10/17 12:41:51;;;;;;;11.13;4.65;;;16.20;99.90;;;;;;10351109;28;20777;-59
2022/10/17 12:47:15;;;;;;;9.35;4.47;;;16.20;99.90;;;;;;10338834;28;20037;-59
2022/10/17 12:52:41;;;;;;;9.65;4.68;;;16.20;99.90;;;;;;10337533;28;20314;-62
2022/10/17 12:58:03;;;;;;;13.90;4.63;;;16.20;99.90;;;;;;10342202;28;20057;-63
2022/10/17 13:03:26;;;;;;;9.15;4.63;;;16.20;99.90;;;;;;10338135;28;20028;-59
2022/10/17 13:08:42;;;;;;;9.82;4.43;;;16.20;99.90;;;;;;10356411;28;20029;-59
2022/10/17 13:13:48;;;;;;;7.60;4.00;;;16.20;99.90;;;;;;10353861;28;20036;-59
2022/10/17 13:18:52;;;;;;;8.75;4.32;;;16.20;99.90;;;;;;10359824;28;20029;-59
2022/10/17 13:23:53;;;;;;;9.77;5.35;;;16.20;99.90;;;;;;10364851;28;20036;-59
2022/10/17 13:29:09;;;;;;;8.52;4.03;;;16.20;99.90;;;;;;10359007;28;20328;-59
2022/10/17 13:34:18;;;;;;;7.22;4.25;;;16.10;99.90;;;;;;10363527;28;20045;-59
2022/10/17 13:39:23;;;;;;;10.07;4.45;;;16.10;99.90;;;;;;10363610;28;20461;-60
2022/10/17 13:44:27;;;;;;;7.45;4.20;;;16.10;99.90;;;;;;10361683;28;20165;-59
2022/10/17 13:49:39;;;;;;;11.85;4.35;;;16.10;99.90;;;;;;10366543;28;20067;-59
2022/10/17 13:54:42;;;;;;;7.68;3.88;;;16.10;99.90;;;;;;10358395;28;20167;-60
2022/10/17 13:59:46;;;;;;;6.68;3.72;;;16.10;99.90;;;;;;10357639;28;20860;-59
2022/10/17 14:04:58;;;;;;;9.55;3.72;;;16.10;99.90;;;;;;10363135;28;20557;-59
2022/10/17 14:09:59;;;;;;;4.32;3.42;;;16.10;99.90;;;;;;10354616;28;20021;-60
2022/10/17 14:15:02;;;;;;;8.57;2.70;;;16.10;99.90;;;;;;10359962;28;20542;-60
2022/10/17 14:20:04;;;;;;;5.28;2.53;;;16.10;99.90;;;;;;10363029;28;20029;-59
2022/10/17 14:25:25;;;;;;;2.65;1.70;;;16.10;99.90;;;;;;10361017;28;20181;-62
2022/10/17 14:30:25;;;;;;;5.32;2.40;;;16.10;99.90;;;;;;10365123;28;20539;-59
2022/10/17 14:35:26;;;;;;;5.45;2.47;;;16.00;99.90;;;;;;10358080;28;20033;-59
2022/10/17 14:40:29;;;;;;;6.03;2.35;;;16.00;99.90;;;;;;10360133;28;20049;-59
2022/10/17 14:45:33;;;;;;;6.53;3.00;;;16.00;99.90;;;;;;10363194;28;20035;-60
2022/10/17 14:50:35;;;;;;;4.20;2.40;;;16.10;99.90;;;;;;10357744;28;20449;-60
2022/10/17 14:55:37;;;;;;;5.55;2.20;;;16.00;99.90;;;;;;10360645;28;20695;-59
2022/10/17 15:00:38;;;;;;;3.95;2.35;;;16.00;99.90;;;;;;10355521;28;20485;-59
2022/10/17 15:05:39;;;;;;;4.20;2.35;;;16.10;99.90;;;;;;10366397;28;20041;-59
2022/10/17 15:10:42;;;;;;;4.28;2.47;;;16.00;99.90;;;;;;10370165;28;20256;-59
2022/10/17 15:15:43;;;;;;;4.10;2.40;;;16.10;99.90;;;;;;10370279;28;20548;-60
2022/10/17 15:20:44;;;;;;;3.13;1.98;;;16.10;99.90;;;;;;10370865;28;20045;-59
2022/10/17 15:25:45;;;;;;;5.43;2.60;;;16.10;99.90;;;;;;10366856;28;20044;-59
2022/10/17 15:30:46;;;;;;;3.00;2.08;;;16.10;99.90;;;;;;10360563;28;20082;-59
2022/10/17 15:35:47;;;;;;;4.47;2.25;;;16.10;99.90;;;;;;10360809;28;20041;-60
2022/10/17 15:40:49;;;;;;;4.80;2.28;;;16.10;99.90;;;;;;10362654;28;20052;-61
2022/10/17 15:45:50;;;;;;;4.03;2.15;;;16.00;99.90;;;;;;10357562;28;20047;-60
2022/10/17 15:50:51;;;;;;;3.22;2.03;;;16.10;99.90;;;;;;10340864;28;20048;-60
2022/10/17 15:55:52;;;;;;;5.13;2.13;;;16.10;99.90;;;;;;10358089;28;20036;-60
2022/10/17 16:00:53;;;;;;;4.32;2.20;;;16.00;99.90;;;;;;10353143;28;20284;-59
2022/10/17 16:05:54;;;;;;;5.35;2.50;;;16.00;99.90;;;;;;10354555;28;20041;-59
2022/10/17 16:10:55;;;;;;;3.38;2.40;;;16.00;99.90;;;;;;10354401;28;20379;-59
2022/10/17 16:15:56;;;;;;;3.33;2.30;;;16.00;99.90;;;;;;10361793;28;20358;-59
2022/10/17 16:20:57;;;;;;;3.30;2.30;;;16.00;99.90;;;;;;10364483;28;20544;-59
2022/10/17 16:25:58;;;;;;;4.00;2.33;;;16.00;99.90;;;;;;10364986;28;20191;-60
2022/10/17 16:30:59;;;;;;;4.75;2.20;;;16.00;99.90;;;;;;10355612;28;20290;-60
2022/10/17 16:35:59;;;;;;;3.83;2.42;;;16.00;99.90;;;;;;10356393;28;20037;-59
2022/10/17 16:41:00;;;;;;;4.22;2.53;;;15.90;99.90;;;;;;10361474;28;20215;-60
2022/10/17 16:46:04;;;;;;;6.00;2.65;;;16.00;99.90;;;;;;10362083;28;20029;-59
2022/10/17 16:51:05;;;;;;;6.20;3.15;;;16.00;99.90;;;;;;10364361;28;20831;-60
2022/10/17 16:56:07;;;;;;;5.45;2.33;;;16.00;99.90;;;;;;10360426;28;20040;-60
2022/10/17 17:01:12;;;;;;;4.13;2.53;;;16.00;99.90;;;;;;10373051;28;20579;-60
2022/10/17 17:06:15;;;;;;;5.95;2.75;;;16.00;99.90;;;;;;10421006;28;20028;-61
2022/10/17 17:11:18;;;;;;;5.72;2.90;;;16.00;99.90;;;;;;10443849;28;20112;-61
2022/10/17 17:16:21;;;;;;;6.10;2.95;;;16.00;99.90;;;;;;10444315;28;20528;-61
2022/10/17 17:21:22;;;;;;;5.60;2.60;;;15.90;99.90;;;;;;10443729;28;20021;-61
2022/10/17 17:26:25;;;;;;;6.05;3.80;;;15.90;99.90;;;;;;10440253;28;20017;-58
2022/10/17 17:31:28;;;;;;;7.82;3.50;;;15.90;99.90;;;;;;10440246;28;20029;-59
2022/10/17 17:36:31;;;;;;;4.60;2.85;;;15.90;99.90;;;;;;10439281;28;20134;-59
2022/10/17 17:41:33;;;;;;;6.18;3.00;;;15.90;99.90;;;;;;10442466;28;20021;-59
2022/10/17 17:46:34;;;;;;;11.27;4.72;;;15.90;99.90;;;;;;10437188;28;20020;-61
2022/10/17 17:51:36;;;;;;;8.70;3.17;;;15.90;99.90;;;;;;10441626;28;20025;-61
2022/10/17 17:56:37;;;;;;;4.93;3.13;;;15.90;99.90;;;;;;10419007;28;20039;-61
2022/10/17 18:01:38;;;;;;;7.38;3.30;;;15.90;99.90;;;;;;10438109;28;20026;-60
2022/10/17 18:06:39;;;;;;;4.28;3.20;;;15.90;99.90;;;;;;10441811;28;20312;-60
2022/10/17 18:11:40;;;;;;;4.63;3.45;;;15.90;99.90;;;;;;10434157;28;20028;-60
2022/10/17 18:16:41;;;;;;;7.22;3.03;;;15.90;99.90;;;;;;10436889;28;20100;-60
2022/10/17 18:21:43;;;;;;;7.30;3.17;;;15.90;99.90;;;;;;10437417;28;22118;-60
2022/10/17 18:26:44;;;;;;;7.65;3.58;;;15.90;99.90;;;;;;10436395;28;20032;-61
2022/10/17 18:31:44;;;;;;;5.43;3.35;;;15.80;99.90;;;;;;10436205;28;20044;-60
2022/10/17 18:36:45;;;;;;;5.10;3.25;;;15.80;99.90;;;;;;10434205;28;20328;-60
2022/10/17 18:41:46;;;;;;;4.28;3.05;;;15.90;99.90;;;;;;10438664;28;20470;-60
2022/10/17 18:46:47;;;;;;;5.72;3.28;;;15.80;99.90;;;;;;10432818;28;20119;-60
2022/10/17 18:51:48;;;;;;;5.40;3.17;;;15.80;99.90;;;;;;10425978;28;20545;-60
2022/10/17 18:56:50;;;;;;;7.28;3.83;;;15.80;99.90;;;;;;10419217;28;20065;-60
2022/10/17 19:01:51;;;;;;;6.25;3.47;;;15.80;99.90;;;;;;10436204;28;20037;-60
2022/10/17 19:06:52;;;;;;;6.85;3.95;;;15.80;99.90;;;;;;10437850;28;20766;-60
2022/10/17 19:11:52;;;;;;;4.93;3.28;;;15.80;99.90;;;;;;10441609;28;20036;-60
2022/10/17 19:16:53;;;;;;;5.28;3.33;;;15.80;99.90;;;;;;10444280;28;20118;-60
2022/10/17 19:21:54;;;;;;;7.78;3.40;;;15.80;99.90;;;;;;10428480;28;20042;-60
2022/10/17 19:26:58;;;;;;;6.50;3.33;;;15.80;99.90;;;;;;10421088;28;20025;-60
2022/10/17 19:31:59;;;;;;;8.57;3.42;;;15.80;99.90;;;;;;10430077;28;20037;-60
2022/10/17 19:37:00;;;;;;;6.22;3.40;;;15.80;99.90;;;;;;10439736;28;20037;-60
2022/10/17 19:42:01;;;;;;;6.40;3.42;;;15.80;99.90;;;;;;10438775;28;20043;-60
2022/10/17 19:47:01;;;;;;;6.50;3.88;;;15.80;99.90;;;;;;10434454;28;20152;-60
2022/10/17 19:52:02;;;;;;;4.70;3.35;;;15.80;99.90;;;;;;10436695;28;20036;-60
2022/10/17 19:57:03;;;;;;;5.55;3.58;;;15.80;99.90;;;;;;10434602;28;20718;-60
2022/10/17 20:02:06;;;;;;;6.75;3.88;;;15.80;99.90;;;;;;10436688;28;20040;-66
2022/10/17 20:07:06;;;;;;;7.00;4.05;;;15.80;99.90;;;;;;10433222;28;20025;-60
2022/10/17 20:12:07;;;;;;;7.18;3.70;;;15.80;99.90;;;;;;10433426;28;20033;-60
2022/10/17 20:17:08;;;;;;;6.05;3.78;;;15.80;99.90;;;;;;10424710;28;20033;-60
2022/10/17 20:22:08;;;;;;;6.63;3.60;;;15.80;99.90;;;;;;10432752;28;20036;-60
2022/10/17 20:27:09;;;;;;;4.55;3.35;;;15.70;99.90;;;;;;10434113;28;20108;-60
2022/10/17 20:32:10;;;;;;;5.10;3.40;;;15.70;99.90;;;;;;10428438;28;20511;-60
2022/10/17 20:37:10;;;;;;;6.97;3.20;;;15.80;99.90;;;;;;10428823;28;20401;-60
2022/10/17 20:42:11;;;;;;;7.47;3.58;;;15.70;99.90;;;;;;10431445;28;20147;-60
2022/10/17 20:47:12;;;;;;;6.25;3.33;;;15.70;99.90;;;;;;10435900;28;20083;-61
2022/10/17 20:52:13;;;;;;;5.55;3.53;;;15.70;99.90;;;;;;10435382;28;20045;-60
2022/10/17 20:57:13;;;;;;;6.38;4.50;;;15.70;99.90;;;;;;10434485;28;20128;-60
2022/10/17 21:02:14;;;;;;;4.63;3.15;;;15.70;99.90;;;;;;10433480;28;20047;-61
2022/10/17 21:07:15;;;;;;;5.75;3.63;;;15.70;99.90;;;;;;10433111;28;20394;-61
2022/10/17 21:12:16;;;;;;;5.03;3.28;;;15.60;99.90;;;;;;10433309;28;20150;-60
2022/10/17 21:17:16;;;;;;;5.70;3.30;;;15.70;99.90;;;;;;10437106;28;20397;-60
2022/10/17 21:22:17;;;;;;;7.18;3.78;;;15.60;99.90;;;;;;10435599;28;20036;-60
2022/10/17 21:27:18;;;;;;;6.20;3.42;;;15.60;99.90;;;;;;10435718;28;20025;-60
2022/10/17 21:32:19;;;;;;;4.13;3.30;;;15.60;99.90;;;;;;10437281;28;20246;-61
2022/10/17 21:37:19;;;;;;;6.50;3.38;;;15.60;99.90;;;;;;10439327;28;20524;-60
2022/10/17 21:42:20;;;;;;;5.80;3.28;;;15.60;99.90;;;;;;10423304;28;20032;-60
2022/10/17 21:47:21;;;;;;;5.43;3.45;;;15.60;99.90;;;;;;10439803;28;20025;-61
2022/10/17 21:52:21;;;;;;;6.50;3.58;;;15.60;99.90;;;;;;10437957;28;20103;-61
2022/10/17 21:57:22;;;;;;;6.55;3.20;;;15.60;99.90;;;;;;10441394;28;20025;-60
2022/10/17 22:02:23;;;;;;;5.38;3.70;;;15.60;99.90;;;;;;10437221;28;20427;-61
2022/10/17 22:07:23;;;;;;;4.47;3.25;;;15.60;99.90;;;;;;10442403;28;20021;-60
2022/10/17 22:12:25;;;;;;;5.00;3.35;;;15.60;99.90;;;;;;10441221;28;20072;-60
2022/10/17 22:17:25;;;;;;;6.30;3.63;;;15.60;99.90;;;;;;10443603;28;20424;-60
2022/10/17 22:22:26;;;;;;;5.75;3.60;;;15.50;99.90;;;;;;10445667;28;20086;-60
2022/10/17 22:27:26;;;;;;;6.68;3.65;;;15.50;99.90;;;;;;10443903;28;20099;-60
2022/10/17 22:32:27;;;;;;;5.50;3.47;;;15.50;99.90;;;;;;10443221;28;20079;-60
2022/10/17 22:37:28;;;;;;;4.80;3.72;;;15.50;99.90;;;;;;10443805;28;20052;-61
2022/10/17 22:42:30;;;;;;;5.57;3.65;;;15.50;99.90;;;;;;10441552;28;20029;-60
2022/10/17 22:47:31;;;;;;;5.68;3.75;;;15.50;99.90;;;;;;10442460;28;20032;-61
2022/10/17 22:52:31;;;;;;;5.63;4.05;;;15.50;99.90;;;;;;10423283;28;20048;-60
2022/10/17 22:57:32;;;;;;;6.43;3.75;;;15.50;99.90;;;;;;10441869;28;20086;-60
2022/10/17 23:02:32;;;;;;;4.70;3.67;;;15.50;99.90;;;;;;10442601;28;20453;-60
2022/10/17 23:07:34;;;;;;;5.22;3.53;;;15.40;99.90;;;;;;10437829;28;20028;-60
2022/10/17 23:12:34;;;;;;;5.13;3.58;;;15.40;99.90;;;;;;10442397;28;20033;-60
2022/10/17 23:17:35;;;;;;;5.55;3.45;;;15.40;99.90;;;;;;10438607;28;20404;-60
2022/10/17 23:22:36;;;;;;;5.43;3.35;;;15.40;99.90;;;;;;10436630;28;20032;-60
2022/10/17 23:27:36;;;;;;;6.47;4.07;;;15.40;99.90;;;;;;10437174;28;20413;-60
2022/10/17 23:32:38;;;;;;;4.90;3.60;;;15.40;99.90;;;;;;10440524;28;20052;-61
2022/10/17 23:37:39;;;;;;;7.63;4.00;;;15.40;99.90;;;;;;10435677;28;20129;-61
2022/10/17 23:42:40;;;;;;;4.38;3.47;;;15.40;99.90;;;;;;10437032;28;20485;-60
2022/10/17 23:47:40;;;;;;;6.85;3.92;;;15.40;99.90;;;;;;10437545;28;20402;-61
2022/10/17 23:52:41;;;;;;;5.55;3.83;;;15.40;99.90;;;;;;10431607;28;20041;-60
2022/10/17 23:57:42;;;;;;;4.47;3.35;;;15.40;99.90;;;;;;10434171;28;20116;-60
